Time;durP1;ratioP1;P1;durP2;ratioP2;P2;SDS_P1;SDS_P2;PMS_P1;PMS_P2;Temp;Humidity;BMP_temperature;BMP_pressure;BME280_temperature;BME280_humidity;BME280_pressure;Samples;Min_cycle;Max_cycle;Signal;HPM_P1;HPM_P2
2022/07/23 00:02:26;;;;;;;5.70;1.33;;;;;;;;;;5323363;28;20019;-70
2022/07/23 00:04:57;;;;;;;3.50;1.70;;;;;;;;;;5323466;28;20055;-70
2022/07/23 00:07:29;;;;;;;4.60;1.42;;;;;;;;;;5323504;28;20319;-70
2022/07/23 00:10:00;;;;;;;5.82;1.42;;;;;;;;;;5323725;28;20095;-70
2022/07/23 00:12:31;;;;;;;13.93;2.15;;;;;;;;;;5322769;28;20020;-70
2022/07/23 00:15:03;;;;;;;3.03;1.67;;;;;;;;;;5323532;28;20027;-70
2022/07/23 00:17:35;;;;;;;4.68;1.50;;;;;;;;;;5324149;28;20108;-70
2022/07/23 00:20:06;;;;;;;3.10;1.75;;;;;;;;;;5322845;28;20041;-71
2022/07/23 00:22:45;;;;;;;3.53;1.77;;;;;;;;;;5323802;28;20044;-70
2022/07/23 00:25:16;;;;;;;2.90;1.73;;;;;;;;;;5326804;28;20019;-70
2022/07/23 00:27:47;;;;;;;5.20;1.77;;;;;;;;;;5327758;28;20106;-70
2022/07/23 00:30:18;;;;;;;4.28;1.90;;;;;;;;;;5327660;28;20378;-70
2022/07/23 00:32:54;;;;;;;5.85;1.67;;;;;;;;;;5327155;28;20062;-70
2022/07/23 00:35:26;;;;;;;3.80;1.90;;;;;;;;;;5327388;28;20031;-70
2022/07/23 00:37:58;;;;;;;3.05;1.58;;;;;;;;;;5327872;28;20073;-70
2022/07/23 00:40:29;;;;;;;4.47;2.25;;;;;;;;;;5326386;28;20020;-70
2022/07/23 00:43:00;;;;;;;3.67;2.45;;;;;;;;;;5327671;28;20023;-70
2022/07/23 00:45:32;;;;;;;5.00;2.67;;;;;;;;;;5327592;28;20016;-70
2022/07/23 00:48:03;;;;;;;7.57;2.50;;;;;;;;;;5326557;28;20110;-70
2022/07/23 00:50:34;;;;;;;4.43;2.78;;;;;;;;;;5327391;28;20011;-70
2022/07/23 00:53:05;;;;;;;7.45;2.33;;;;;;;;;;5326637;28;20374;-70
2022/07/23 00:55:37;;;;;;;5.03;2.90;;;;;;;;;;5327448;28;20012;-70
2022/07/23 00:58:09;;;;;;;6.35;2.67;;;;;;;;;;5327344;28;20020;-70
2022/07/23 01:00:40;;;;;;;3.53;2.80;;;;;;;;;;5326390;28;20016;-71
2022/07/23 01:03:11;;;;;;;6.20;2.97;;;;;;;;;;5327338;28;20023;-71
2022/07/23 01:05:44;;;;;;;5.18;2.75;;;;;;;;;;5327119;28;20034;-69
2022/07/23 01:08:16;;;;;;;4.30;3.20;;;;;;;;;;5326144;28;20309;-68
2022/07/23 01:10:48;;;;;;;4.40;2.72;;;;;;;;;;5326983;28;20023;-70
2022/07/23 01:13:19;;;;;;;3.97;3.08;;;;;;;;;;5326453;28;20031;-69
2022/07/23 01:15:50;;;;;;;3.50;2.78;;;;;;;;;;5326560;28;20035;-69
2022/07/23 01:18:21;;;;;;;4.85;2.80;;;;;;;;;;5326568;28;20114;-69
2022/07/23 01:20:52;;;;;;;4.25;2.80;;;;;;;;;;5326940;28;20269;-69
2022/07/23 01:23:24;;;;;;;5.55;3.05;;;;;;;;;;5325338;28;20689;-69
2022/07/23 01:25:55;;;;;;;6.65;3.08;;;;;;;;;;5326795;28;20771;-69
2022/07/23 01:28:26;;;;;;;5.18;3.13;;;;;;;;;;5325665;28;20023;-69
2022/07/23 01:30:57;;;;;;;5.88;2.58;;;;;;;;;;5326857;28;20095;-68
2022/07/23 01:33:29;;;;;;;3.73;2.93;;;;;;;;;;5326096;28;20028;-68
2022/07/23 01:36:00;;;;;;;5.50;2.78;;;;;;;;;;5325049;28;20273;-69
2022/07/23 01:38:31;;;;;;;5.65;2.92;;;;;;;;;;5325843;28;20366;-69
2022/07/23 01:41:02;;;;;;;3.25;2.95;;;;;;;;;;5326122;28;20805;-68
2022/07/23 01:43:33;;;;;;;7.22;3.00;;;;;;;;;;5325433;28;20752;-69
2022/07/23 01:46:05;;;;;;;5.90;3.08;;;;;;;;;;5326337;28;20012;-69
2022/07/23 01:48:36;;;;;;;3.88;3.00;;;;;;;;;;5325969;28;20020;-68
2022/07/23 01:51:07;;;;;;;3.50;2.90;;;;;;;;;;5325203;28;20094;-69
2022/07/23 01:53:39;;;;;;;5.10;2.75;;;;;;;;;;5325686;28;20304;-69
2022/07/23 01:56:10;;;;;;;5.20;2.90;;;;;;;;;;5325052;28;20465;-69
2022/07/23 01:58:41;;;;;;;5.38;3.25;;;;;;;;;;5325865;28;20257;-69
2022/07/23 02:01:12;;;;;;;4.63;3.67;;;;;;;;;;5325736;28;20012;-69
2022/07/23 02:03:43;;;;;;;3.67;2.60;;;;;;;;;;5325101;28;20026;-69
2022/07/23 02:06:14;;;;;;;3.33;3.00;;;;;;;;;;5325943;28;20758;-69
2022/07/23 02:08:46;;;;;;;6.68;3.35;;;;;;;;;;5325682;28;20328;-69
2022/07/23 02:11:17;;;;;;;6.32;3.03;;;;;;;;;;5325052;28;20389;-70
2022/07/23 02:13:48;;;;;;;7.90;3.97;;;;;;;;;;5325545;28;20309;-69
2022/07/23 02:16:19;;;;;;;3.75;2.85;;;;;;;;;;5325476;28;20304;-69
2022/07/23 02:18:50;;;;;;;7.57;3.60;;;;;;;;;;5325187;28;20269;-69
2022/07/23 02:21:21;;;;;;;8.15;3.15;;;;;;;;;;5325112;28;20094;-69
2022/07/23 02:23:53;;;;;;;4.47;3.25;;;;;;;;;;5325547;28;20290;-70
2022/07/23 02:26:24;;;;;;;8.17;4.03;;;;;;;;;;5324231;28;20265;-69
2022/07/23 02:28:55;;;;;;;5.32;3.55;;;;;;;;;;5325563;28;20674;-69
2022/07/23 02:31:26;;;;;;;5.60;3.15;;;;;;;;;;5324192;28;20694;-71
2022/07/23 02:33:57;;;;;;;6.60;4.07;;;;;;;;;;5325463;28;20775;-70
2022/07/23 02:36:28;;;;;;;7.88;3.78;;;;;;;;;;5324895;28;20761;-69
2022/07/23 02:39:00;;;;;;;4.20;3.45;;;;;;;;;;5324254;28;20114;-70
2022/07/23 02:41:31;;;;;;;3.85;3.45;;;;;;;;;;5324842;28;20015;-69
2022/07/23 02:44:02;;;;;;;6.80;4.07;;;;;;;;;;5324693;28;20293;-69
2022/07/23 02:46:33;;;;;;;5.82;3.25;;;;;;;;;;5323386;28;20015;-69
2022/07/23 02:49:04;;;;;;;3.72;3.42;;;;;;;;;;5324870;28;20019;-70
2022/07/23 02:51:35;;;;;;;7.57;4.37;;;;;;;;;;5324915;28;20284;-70
2022/07/23 02:54:07;;;;;;;7.60;4.05;;;;;;;;;;5324122;28;20297;-70
2022/07/23 02:56:38;;;;;;;5.53;3.75;;;;;;;;;;5324927;28;20269;-69
2022/07/23 02:59:09;;;;;;;4.35;3.90;;;;;;;;;;5324757;28;20273;-70
2022/07/23 03:01:40;;;;;;;6.10;3.95;;;;;;;;;;5323886;28;20102;-70
2022/07/23 03:04:12;;;;;;;5.82;3.80;;;;;;;;;;5324843;28;20027;-70
2022/07/23 03:06:43;;;;;;;5.20;3.90;;;;;;;;;;5323694;28;20322;-70
2022/07/23 03:09:14;;;;;;;5.75;4.50;;;;;;;;;;5324578;28;20451;-69
2022/07/23 03:11:45;;;;;;;5.28;4.13;;;;;;;;;;5324548;28;20019;-70
2022/07/23 03:14:16;;;;;;;5.20;3.93;;;;;;;;;;5323521;28;20058;-70
2022/07/23 03:16:49;;;;;;;6.10;4.47;;;;;;;;;;5324630;28;20315;-70
2022/07/23 03:19:20;;;;;;;5.03;4.25;;;;;;;;;;5324359;27;20261;-69
2022/07/23 03:21:52;;;;;;;5.73;4.50;;;;;;;;;;5323890;28;20043;-69
2022/07/23 03:24:53;;;;;;;8.43;6.05;;;;;;;;;;5323671;28;20313;-70
2022/07/23 03:27:14;;;;;;;6.15;5.55;;;;;;;;;;5324134;28;20035;-69
2022/07/23 03:29:45;;;;;;;6.60;5.68;;;;;;;;;;5323333;28;20016;-70
2022/07/23 03:32:16;;;;;;;7.07;5.95;;;;;;;;;;5324083;28;20474;-69
2022/07/23 03:34:48;;;;;;;6.83;6.00;;;;;;;;;;5323231;28;20032;-70
2022/07/23 03:37:19;;;;;;;6.65;5.63;;;;;;;;;;5323821;28;20297;-69
2022/07/23 03:39:50;;;;;;;8.68;5.35;;;;;;;;;;5324508;28;20020;-69
2022/07/23 03:42:21;;;;;;;8.77;5.93;;;;;;;;;;5322959;28;20094;-69
2022/07/23 03:44:53;;;;;;;6.80;5.70;;;;;;;;;;5324238;28;20280;-69
2022/07/23 03:47:24;;;;;;;6.03;5.43;;;;;;;;;;5323582;28;20282;-69
2022/07/23 03:49:55;;;;;;;7.37;5.77;;;;;;;;;;5323535;28;20280;-69
2022/07/23 03:52:26;;;;;;;8.23;5.93;;;;;;;;;;5323494;28;20410;-69
2022/07/23 03:54:57;;;;;;;6.80;6.20;;;;;;;;;;5324068;28;20276;-69
2022/07/23 03:57:29;;;;;;;9.52;6.60;;;;;;;;;;5322225;28;20043;-69
2022/07/23 04:00:00;;;;;;;7.05;6.22;;;;;;;;;;5323512;28;20031;-70
2022/07/23 04:02:31;;;;;;;11.40;7.13;;;;;;;;;;5323554;28;20387;-69
2022/07/23 04:05:02;;;;;;;9.77;6.78;;;;;;;;;;5322874;28;20096;-69
2022/07/23 04:07:34;;;;;;;8.00;6.50;;;;;;;;;;5323404;28;20261;-69
2022/07/23 04:10:05;;;;;;;7.45;6.18;;;;;;;;;;5322532;28;20034;-69
2022/07/23 04:12:36;;;;;;;7.00;6.30;;;;;;;;;;5323082;28;20110;-69
2022/07/23 04:15:08;;;;;;;11.02;6.50;;;;;;;;;;5323324;28;20042;-70
2022/07/23 04:17:39;;;;;;;8.23;6.47;;;;;;;;;;5322966;28;20423;-69
2022/07/23 04:20:10;;;;;;;7.90;6.72;;;;;;;;;;5323680;28;20016;-70
2022/07/23 04:22:42;;;;;;;10.68;7.88;;;;;;;;;;5323369;28;20042;-70
2022/07/23 04:25:16;;;;;;;10.43;7.27;;;;;;;;;;5322915;28;20161;-70
2022/07/23 04:27:47;;;;;;;9.93;7.60;;;;;;;;;;5323633;28;20264;-70
2022/07/23 04:30:18;;;;;;;7.97;7.28;;;;;;;;;;5323088;28;20028;-71
2022/07/23 04:32:49;;;;;;;8.63;7.77;;;;;;;;;;5322987;28;20644;-69
2022/07/23 04:35:21;;;;;;;12.77;8.33;;;;;;;;;;5322914;28;20262;-69
2022/07/23 04:37:52;;;;;;;10.15;8.82;;;;;;;;;;5323728;28;20271;-70
2022/07/23 04:40:23;;;;;;;12.98;7.90;;;;;;;;;;5322290;28;20016;-69
2022/07/23 04:42:56;;;;;;;12.17;9.03;;;;;;;;;;5323619;28;20054;-70
2022/07/23 04:45:27;;;;;;;10.48;8.65;;;;;;;;;;5322072;28;20273;-70
2022/07/23 04:47:58;;;;;;;11.23;7.80;;;;;;;;;;5323452;28;20016;-70
2022/07/23 04:50:29;;;;;;;10.68;8.02;;;;;;;;;;5322804;28;20020;-69
2022/07/23 04:53:00;;;;;;;15.27;8.83;;;;;;;;;;5322327;28;20386;-69
2022/07/23 04:55:32;;;;;;;13.55;8.73;;;;;;;;;;5323165;28;20338;-69
2022/07/23 04:58:03;;;;;;;12.73;8.45;;;;;;;;;;5322955;28;20296;-70
2022/07/23 05:00:34;;;;;;;13.93;8.55;;;;;;;;;;5322186;28;20022;-70
2022/07/23 05:03:05;;;;;;;11.13;8.88;;;;;;;;;;5323192;28;20023;-69
2022/07/23 05:05:37;;;;;;;19.67;8.95;;;;;;;;;;5323132;28;20019;-69
2022/07/23 05:08:08;;;;;;;11.90;8.50;;;;;;;;;;5322192;28;20058;-70
2022/07/23 05:10:39;;;;;;;12.48;8.07;;;;;;;;;;5325598;28;20016;-69
2022/07/23 05:13:10;;;;;;;13.38;8.27;;;;;;;;;;5325992;28;20467;-70
2022/07/23 05:15:42;;;;;;;16.00;8.88;;;;;;;;;;5326674;28;20024;-69
2022/07/23 05:18:13;;;;;;;11.15;8.57;;;;;;;;;;5326752;28;20367;-69
2022/07/23 05:20:44;;;;;;;11.13;8.57;;;;;;;;;;5325839;28;20030;-70
2022/07/23 05:23:15;;;;;;;9.57;7.63;;;;;;;;;;5326244;28;20297;-70
2022/07/23 05:25:46;;;;;;;15.98;8.90;;;;;;;;;;5326731;28;20028;-68
2022/07/23 05:28:17;;;;;;;14.60;8.43;;;;;;;;;;5325810;27;20352;-69
2022/07/23 05:30:49;;;;;;;13.60;8.00;;;;;;;;;;5326632;28;20061;-69
2022/07/23 05:33:20;;;;;;;12.65;7.88;;;;;;;;;;5326077;28;20293;-69
2022/07/23 05:35:51;;;;;;;10.95;7.95;;;;;;;;;;5325638;28;20130;-68
2022/07/23 05:38:22;;;;;;;9.80;8.13;;;;;;;;;;5326176;28;20529;-69
2022/07/23 05:40:53;;;;;;;11.35;8.02;;;;;;;;;;5326758;28;20016;-71
2022/07/23 05:43:25;;;;;;;13.77;7.60;;;;;;;;;;5325327;28;20303;-70
2022/07/23 05:45:56;;;;;;;11.85;7.80;;;;;;;;;;5326609;28;20024;-70
2022/07/23 05:48:27;;;;;;;7.38;6.68;;;;;;;;;;5325057;28;20016;-70
2022/07/23 05:50:58;;;;;;;9.07;6.90;;;;;;;;;;5326113;28;20007;-70
2022/07/23 05:53:29;;;;;;;10.97;7.80;;;;;;;;;;5325673;28;20490;-70
2022/07/23 05:56:01;;;;;;;8.25;7.47;;;;;;;;;;5325390;28;20732;-70
2022/07/23 05:58:32;;;;;;;7.47;6.72;;;;;;;;;;5325974;28;20102;-70
2022/07/23 06:01:03;;;;;;;8.57;7.60;;;;;;;;;;5325978;28;20016;-70
2022/07/23 06:03:34;;;;;;;7.83;7.10;;;;;;;;;;5325099;28;20257;-71
2022/07/23 06:06:05;;;;;;;8.30;5.90;;;;;;;;;;5325756;28;20812;-70
2022/07/23 06:08:37;;;;;;;8.65;6.07;;;;;;;;;;5325802;28;20627;-70
2022/07/23 06:11:08;;;;;;;6.87;6.17;;;;;;;;;;5324886;28;20012;-70
2022/07/23 06:13:39;;;;;;;8.48;5.70;;;;;;;;;;5319909;28;20388;-70
2022/07/23 06:16:10;;;;;;;7.50;5.87;;;;;;;;;;5325560;28;20095;-71
2022/07/23 06:18:41;;;;;;;5.13;4.63;;;;;;;;;;5324803;28;20277;-70
2022/07/23 06:21:12;;;;;;;5.60;4.87;;;;;;;;;;5323875;28;20261;-70
2022/07/23 06:23:44;;;;;;;6.40;5.07;;;;;;;;;;5324443;28;20776;-70
2022/07/23 06:26:15;;;;;;;8.75;5.35;;;;;;;;;;5325522;28;20254;-71
2022/07/23 06:28:46;;;;;;;5.07;4.47;;;;;;;;;;5312667;28;20072;-70
2022/07/23 06:31:17;;;;;;;5.15;4.50;;;;;;;;;;5319559;28;20273;-70
2022/07/23 06:33:48;;;;;;;6.27;3.70;;;;;;;;;;5324444;28;20381;-71
2022/07/23 06:36:19;;;;;;;4.63;4.23;;;;;;;;;;5323741;28;20308;-70
2022/07/23 06:38:51;;;;;;;4.15;3.53;;;;;;;;;;5323856;28;20268;-70
2022/07/23 06:41:25;;;;;;;4.90;3.43;;;;;;;;;;5324004;28;20085;-70
2022/07/23 06:43:56;;;;;;;5.45;4.25;;;;;;;;;;5324185;28;20274;-70
2022/07/23 06:46:27;;;;;;;5.27;3.87;;;;;;;;;;5322664;28;20034;-70
2022/07/23 06:48:58;;;;;;;7.35;3.28;;;;;;;;;;5323891;28;20759;-71
2022/07/23 06:51:30;;;;;;;7.23;3.57;;;;;;;;;;5324089;28;20269;-71
2022/07/23 06:54:01;;;;;;;4.95;3.70;;;;;;;;;;5324011;28;20741;-70
2022/07/23 06:56:33;;;;;;;3.95;3.53;;;;;;;;;;5324681;28;20020;-70
2022/07/23 06:59:04;;;;;;;5.40;3.33;;;;;;;;;;5323754;28;20020;-70
2022/07/23 07:01:35;;;;;;;6.30;3.03;;;;;;;;;;5324827;28;20265;-70
2022/07/23 07:04:06;;;;;;;5.60;3.17;;;;;;;;;;5324566;28;20261;-70
2022/07/23 07:06:38;;;;;;;4.95;3.10;;;;;;;;;;5323821;28;20020;-70
2022/07/23 07:09:09;;;;;;;4.18;3.38;;;;;;;;;;5324558;28;20020;-70
2022/07/23 07:11:40;;;;;;;5.35;3.08;;;;;;;;;;5324282;28;20356;-70
2022/07/23 07:14:11;;;;;;;4.83;2.43;;;;;;;;;;5323596;28;20297;-70
2022/07/23 07:16:42;;;;;;;3.38;2.67;;;;;;;;;;5324036;28;20349;-70
2022/07/23 07:19:13;;;;;;;4.83;2.40;;;;;;;;;;5323786;28;20019;-70
2022/07/23 07:21:45;;;;;;;5.35;3.33;;;;;;;;;;5323254;28;20344;-70
2022/07/23 07:24:16;;;;;;;3.17;2.57;;;;;;;;;;5323907;28;20039;-70
2022/07/23 07:26:47;;;;;;;3.92;1.73;;;;;;;;;;5323041;28;20260;-70
2022/07/23 07:29:18;;;;;;;4.25;2.20;;;;;;;;;;5323420;28;20019;-69
2022/07/23 07:31:49;;;;;;;2.15;1.67;;;;;;;;;;5323961;28;20250;-68
2022/07/23 07:34:21;;;;;;;4.43;2.08;;;;;;;;;;5322536;28;20038;-70
2022/07/23 07:36:52;;;;;;;8.00;2.87;;;;;;;;;;5323921;28;20072;-70
2022/07/23 07:39:23;;;;;;;5.27;1.77;;;;;;;;;;5323461;28;20272;-70
2022/07/23 07:41:54;;;;;;;6.63;1.97;;;;;;;;;;5323248;28;20808;-70
2022/07/23 07:44:25;;;;;;;3.67;2.60;;;;;;;;;;5323362;28;20265;-71
2022/07/23 07:46:56;;;;;;;8.38;2.60;;;;;;;;;;5323127;28;20274;-71
2022/07/23 07:49:27;;;;;;;5.00;1.73;;;;;;;;;;5320664;28;20028;-71
2022/07/23 07:51:59;;;;;;;3.13;1.67;;;;;;;;;;5323075;28;20262;-70
2022/07/23 07:54:30;;;;;;;6.57;2.17;;;;;;;;;;5322795;28;20015;-70
2022/07/23 07:57:01;;;;;;;3.40;1.70;;;;;;;;;;5322674;28;20489;-70
2022/07/23 07:59:32;;;;;;;2.95;2.22;;;;;;;;;;5323581;28;20072;-71
2022/07/23 08:02:04;;;;;;;4.50;2.17;;;;;;;;;;5322695;28;20454;-71
2022/07/23 08:04:35;;;;;;;3.40;2.25;;;;;;;;;;5323662;28;20663;-71
2022/07/23 08:07:06;;;;;;;4.40;1.88;;;;;;;;;;5323584;28;20020;-70
2022/07/23 08:09:37;;;;;;;6.03;2.73;;;;;;;;;;5322759;28;20031;-71
2022/07/23 08:12:08;;;;;;;4.38;2.22;;;;;;;;;;5323328;28;20249;-70
2022/07/23 08:14:39;;;;;;;3.33;2.03;;;;;;;;;;5323563;28;20023;-71
2022/07/23 08:17:10;;;;;;;3.10;1.92;;;;;;;;;;5322851;28;20012;-71
2022/07/23 08:19:42;;;;;;;3.70;2.20;;;;;;;;;;5323864;28;20073;-70
2022/07/23 08:22:13;;;;;;;4.68;1.90;;;;;;;;;;5323311;28;20012;-70
2022/07/23 08:24:44;;;;;;;4.60;1.73;;;;;;;;;;5322543;28;20034;-71
2022/07/23 08:27:15;;;;;;;3.90;1.77;;;;;;;;;;5323216;28;20019;-70
2022/07/23 08:29:46;;;;;;;3.87;1.60;;;;;;;;;;5323403;28;20273;-70
2022/07/23 08:32:17;;;;;;;5.07;2.47;;;;;;;;;;5322962;28;20573;-70
2022/07/23 08:34:49;;;;;;;4.55;1.83;;;;;;;;;;5323404;28;20643;-70
2022/07/23 08:37:20;;;;;;;6.28;2.80;;;;;;;;;;5322506;28;20262;-71
2022/07/23 08:39:51;;;;;;;2.72;2.03;;;;;;;;;;5323769;28;20024;-70
2022/07/23 08:42:22;;;;;;;6.33;2.43;;;;;;;;;;5323129;28;20016;-70
2022/07/23 08:44:54;;;;;;;3.30;1.67;;;;;;;;;;5324330;28;20268;-70
2022/07/23 08:47:25;;;;;;;4.38;1.50;;;;;;;;;;5327054;28;20103;-72
2022/07/23 08:49:58;;;;;;;3.53;1.33;;;;;;;;;;5327913;28;20308;-70
2022/07/23 08:52:30;;;;;;;3.97;1.25;;;;;;;;;;5326442;28;20047;-70
2022/07/23 08:55:02;;;;;;;5.13;1.30;;;;;;;;;;5327076;28;20036;-70
2022/07/23 08:57:33;;;;;;;5.25;1.80;;;;;;;;;;5327282;28;20408;-71
2022/07/23 09:00:06;;;;;;;3.75;1.00;;;;;;;;;;5326294;28;20148;-70
2022/07/23 09:02:38;;;;;;;6.43;1.33;;;;;;;;;;5327420;28;20020;-70
2022/07/23 09:05:13;;;;;;;4.47;1.20;;;;;;;;;;5326874;28;20023;-70
2022/07/23 09:08:03;;;;;;;3.22;0.98;;;;;;;;;;5327035;28;20018;-71
2022/07/23 09:10:43;;;;;;;5.03;1.13;;;;;;;;;;5327155;28;20096;-72
2022/07/23 09:13:35;;;;;;;4.90;1.10;;;;;;;;;;5326078;28;20043;-71
2022/07/23 09:16:08;;;;;;;4.63;1.20;;;;;;;;;;5326853;28;20015;-71
2022/07/23 09:18:43;;;;;;;4.18;1.40;;;;;;;;;;5326775;28;20023;-70
2022/07/23 09:21:17;;;;;;;3.67;0.80;;;;;;;;;;5326182;28;20031;-70
2022/07/23 09:23:50;;;;;;;2.30;0.80;;;;;;;;;;5326631;28;20448;-70
2022/07/23 09:26:21;;;;;;;5.35;1.00;;;;;;;;;;5325563;27;20482;-70
2022/07/23 09:28:53;;;;;;;2.35;1.10;;;;;;;;;;5326599;28;20024;-71
2022/07/23 09:31:25;;;;;;;2.15;0.90;;;;;;;;;;5326173;28;20080;-72
2022/07/23 09:34:10;;;;;;;2.80;0.90;;;;;;;;;;5325925;28;20111;-73
2022/07/23 09:36:41;;;;;;;3.67;1.27;;;;;;;;;;5326485;28;20111;-73
2022/07/23 09:39:14;;;;;;;5.43;1.25;;;;;;;;;;5326555;28;20506;-70
2022/07/23 09:41:46;;;;;;;3.53;1.10;;;;;;;;;;5325493;28;20035;-70
2022/07/23 09:44:19;;;;;;;3.75;1.13;;;;;;;;;;5326170;28;20069;-71
2022/07/23 09:46:50;;;;;;;5.07;0.95;;;;;;;;;;5326498;28;20096;-72
2022/07/23 09:49:23;;;;;;;2.40;0.90;;;;;;;;;;5325236;28;20120;-73
2022/07/23 09:52:01;;;;;;;3.95;1.10;;;;;;;;;;5326331;28;20095;-73
2022/07/23 09:54:33;;;;;;;3.55;0.90;;;;;;;;;;5325403;28;20469;-73
2022/07/23 09:57:16;;;;;;;3.33;0.90;;;;;;;;;;5326038;28;20015;-72
2022/07/23 09:59:48;;;;;;;5.18;0.90;;;;;;;;;;5326016;28;20374;-73
2022/07/23 10:02:19;;;;;;;2.58;0.70;;;;;;;;;;5324710;28;20015;-72
2022/07/23 10:04:52;;;;;;;2.42;0.80;;;;;;;;;;5326354;28;20016;-72
2022/07/23 10:07:26;;;;;;;2.47;0.80;;;;;;;;;;5325538;28;20015;-71
2022/07/23 10:09:58;;;;;;;2.63;0.60;;;;;;;;;;5320966;28;20106;-72
2022/07/23 10:15:06;;;;;;;2.08;0.70;;;;;;;;;;5325523;28;20055;-72
2022/07/23 10:17:37;;;;;;;2.92;0.80;;;;;;;;;;5324785;28;20895;-72
2022/07/23 10:20:09;;;;;;;2.97;0.90;;;;;;;;;;5324871;28;20032;-73
2022/07/23 10:22:44;;;;;;;1.83;0.70;;;;;;;;;;5324488;28;20050;-73
2022/07/23 10:25:15;;;;;;;2.47;0.55;;;;;;;;;;5325360;28;20379;-72
2022/07/23 10:27:55;;;;;;;3.15;0.90;;;;;;;;;;5325505;28;20028;-72
2022/07/23 10:30:35;;;;;;;3.38;0.90;;;;;;;;;;5323222;28;20038;-73
2022/07/23 10:33:25;;;;;;;2.80;0.90;;;;;;;;;;5324139;28;20034;-73
2022/07/23 10:36:01;;;;;;;2.38;0.80;;;;;;;;;;5324827;28;20089;-73
2022/07/23 10:38:35;;;;;;;2.53;0.80;;;;;;;;;;5323861;28;20020;-73
2022/07/23 10:41:06;;;;;;;3.03;0.85;;;;;;;;;;5324403;28;20023;-73
2022/07/23 10:43:38;;;;;;;3.17;0.57;;;;;;;;;;5324115;28;20069;-73
2022/07/23 10:46:25;;;;;;;4.77;0.90;;;;;;;;;;5324565;28;20541;-73
2022/07/23 10:49:15;;;;;;;4.63;1.10;;;;;;;;;;5325477;28;20275;-73
2022/07/23 10:52:04;;;;;;;1.85;0.60;;;;;;;;;;5324348;28;20114;-73
2022/07/23 10:54:36;;;;;;;1.90;0.50;;;;;;;;;;5324748;28;20108;-72
2022/07/23 10:57:08;;;;;;;1.50;0.60;;;;;;;;;;5324721;28;20053;-73
2022/07/23 10:59:58;;;;;;;2.58;0.50;;;;;;;;;;5324292;28;20419;-72
2022/07/23 11:02:30;;;;;;;2.75;0.70;;;;;;;;;;5324214;28;20027;-73
2022/07/23 11:05:03;;;;;;;2.85;0.77;;;;;;;;;;5323851;28;20030;-69
2022/07/23 11:07:35;;;;;;;2.05;0.60;;;;;;;;;;5324253;28;20088;-69
2022/07/23 11:10:26;;;;;;;2.05;0.63;;;;;;;;;;5324680;28;20012;-70
2022/07/23 11:13:17;;;;;;;3.70;1.00;;;;;;;;;;5323900;28;20055;-70
2022/07/23 11:16:01;;;;;;;2.55;0.88;;;;;;;;;;5324385;28;20102;-70
2022/07/23 11:18:44;;;;;;;3.72;0.65;;;;;;;;;;5324527;28;20023;-70
2022/07/23 11:21:28;;;;;;;3.13;0.60;;;;;;;;;;5323837;28;20024;-69
2022/07/23 11:24:03;;;;;;;4.03;0.63;;;;;;;;;;5324371;28;20047;-71
2022/07/23 11:26:40;;;;;;;5.22;0.80;;;;;;;;;;5323826;28;20065;-70
2022/07/23 11:29:35;;;;;;;4.20;0.70;;;;;;;;;;5324388;28;20088;-71
2022/07/23 11:32:07;;;;;;;2.13;0.60;;;;;;;;;;5324362;28;20027;-74
2022/07/23 11:34:40;;;;;;;1.50;0.60;;;;;;;;;;5323311;28;20039;-71
2022/07/23 11:37:12;;;;;;;2.97;0.60;;;;;;;;;;5324375;28;20482;-71
2022/07/23 11:39:46;;;;;;;4.20;0.77;;;;;;;;;;5324192;28;20064;-71
2022/07/23 11:42:18;;;;;;;3.92;0.50;;;;;;;;;;5323389;28;20027;-71
2022/07/23 11:44:50;;;;;;;3.90;0.65;;;;;;;;;;5324632;28;20102;-71
2022/07/23 11:47:25;;;;;;;4.95;0.82;;;;;;;;;;5323336;28;20086;-72
2022/07/23 11:49:57;;;;;;;2.33;0.80;;;;;;;;;;5324315;28;20346;-75
2022/07/23 11:52:29;;;;;;;2.88;0.60;;;;;;;;;;5323439;28;20543;-76
2022/07/23 11:55:02;;;;;;;1.85;0.50;;;;;;;;;;5323110;28;20023;-74
2022/07/23 11:57:37;;;;;;;1.90;0.47;;;;;;;;;;5324009;28;20366;-75
2022/07/23 12:00:13;;;;;;;2.95;0.45;;;;;;;;;;5323804;28;20030;-74
2022/07/23 12:02:46;;;;;;;1.50;0.50;;;;;;;;;;5319118;28;20106;-74
2022/07/23 12:05:17;;;;;;;1.80;0.40;;;;;;;;;;5322722;28;20020;-75
2022/07/23 12:07:49;;;;;;;1.37;0.40;;;;;;;;;;5323794;28;20092;-75
2022/07/23 12:10:26;;;;;;;1.73;0.30;;;;;;;;;;5322666;28;20095;-75
2022/07/23 12:13:01;;;;;;;3.55;0.60;;;;;;;;;;5322932;28;20062;-75
2022/07/23 12:15:37;;;;;;;3.17;0.73;;;;;;;;;;5322389;28;20019;-72
2022/07/23 12:18:10;;;;;;;1.35;0.30;;;;;;;;;;5323019;28;20034;-75
2022/07/23 12:20:43;;;;;;;2.38;0.52;;;;;;;;;;5326700;28;20020;-74
2022/07/23 12:23:15;;;;;;;1.10;0.40;;;;;;;;;;5327040;28;20051;-75
2022/07/23 12:25:47;;;;;;;1.98;0.50;;;;;;;;;;5327956;28;20023;-75
2022/07/23 12:28:19;;;;;;;1.92;0.60;;;;;;;;;;5327610;27;20019;-74
2022/07/23 12:30:54;;;;;;;3.15;0.40;;;;;;;;;;5327345;28;20020;-74
2022/07/23 12:33:27;;;;;;;2.72;0.40;;;;;;;;;;5327196;28;20032;-74
2022/07/23 12:36:00;;;;;;;3.15;0.60;;;;;;;;;;5327112;28;20020;-74
2022/07/23 12:38:40;;;;;;;2.13;0.70;;;;;;;;;;5324839;28;20027;-75
2022/07/23 12:41:11;;;;;;;0.85;0.30;;;;;;;;;;5325486;28;20034;-75
2022/07/23 12:43:43;;;;;;;1.83;0.50;;;;;;;;;;5325414;28;20474;-75
2022/07/23 12:46:14;;;;;;;2.85;0.50;;;;;;;;;;5327323;28;20084;-75
2022/07/23 12:48:49;;;;;;;1.57;0.40;;;;;;;;;;5327192;28;20023;-74
2022/07/23 12:51:31;;;;;;;1.35;0.40;;;;;;;;;;5326076;28;20028;-75
2022/07/23 12:54:06;;;;;;;1.52;0.38;;;;;;;;;;5327156;28;20036;-75
2022/07/23 12:56:40;;;;;;;1.77;0.35;;;;;;;;;;5327091;28;20827;-75
2022/07/23 12:59:16;;;;;;;2.25;0.38;;;;;;;;;;5326708;28;20020;-75
2022/07/23 13:01:55;;;;;;;2.03;0.40;;;;;;;;;;5326892;28;20022;-75
2022/07/23 13:04:26;;;;;;;1.33;0.50;;;;;;;;;;5326048;28;20054;-75
2022/07/23 13:06:58;;;;;;;1.15;0.50;;;;;;;;;;5327301;28;20051;-75
2022/07/23 13:09:31;;;;;;;1.90;0.45;;;;;;;;;;5326449;28;20031;-75
2022/07/23 13:12:02;;;;;;;1.58;0.50;;;;;;;;;;5325749;28;20099;-74
2022/07/23 13:14:33;;;;;;;2.45;0.50;;;;;;;;;;5326654;28;20134;-75
2022/07/23 13:17:04;;;;;;;4.75;0.73;;;;;;;;;;5326591;28;20043;-76
2022/07/23 13:19:35;;;;;;;1.45;0.50;;;;;;;;;;5325765;28;20080;-76
2022/07/23 13:22:06;;;;;;;1.55;0.50;;;;;;;;;;5326303;28;20016;-74
2022/07/23 13:24:38;;;;;;;3.23;0.40;;;;;;;;;;5326221;28;20117;-70
2022/07/23 13:27:09;;;;;;;1.27;0.50;;;;;;;;;;5321245;28;20018;-73
2022/07/23 13:29:41;;;;;;;3.47;0.50;;;;;;;;;;5326142;28;20027;-73
2022/07/23 13:32:12;;;;;;;2.13;0.52;;;;;;;;;;5325800;28;20085;-72
2022/07/23 13:34:43;;;;;;;3.08;0.50;;;;;;;;;;5324933;28;20049;-72
2022/07/23 13:37:15;;;;;;;3.37;0.50;;;;;;;;;;5326224;28;20490;-72
2022/07/23 13:39:46;;;;;;;2.90;0.50;;;;;;;;;;5325170;28;20277;-72
2022/07/23 13:42:17;;;;;;;2.60;0.50;;;;;;;;;;5325597;28;20015;-72
2022/07/23 13:44:48;;;;;;;1.47;0.60;;;;;;;;;;5325764;28;20020;-72
2022/07/23 13:47:19;;;;;;;1.67;0.40;;;;;;;;;;5324480;28;20269;-72
2022/07/23 13:49:51;;;;;;;2.85;0.50;;;;;;;;;;5326123;28;20035;-72
2022/07/23 13:52:22;;;;;;;0.95;0.40;;;;;;;;;;5325290;28;20027;-73
2022/07/23 13:54:53;;;;;;;1.63;0.43;;;;;;;;;;5325119;28;20034;-73
2022/07/23 13:57:24;;;;;;;1.73;0.50;;;;;;;;;;5325412;28;20049;-73
2022/07/23 13:59:56;;;;;;;1.20;0.40;;;;;;;;;;5325971;28;20030;-74
2022/07/23 14:02:27;;;;;;;1.38;0.50;;;;;;;;;;5324723;28;20099;-73
2022/07/23 14:04:58;;;;;;;2.73;0.47;;;;;;;;;;5325767;28;20020;-73
2022/07/23 14:07:29;;;;;;;2.53;0.40;;;;;;;;;;5325171;28;20264;-73
2022/07/23 14:10:01;;;;;;;2.20;0.52;;;;;;;;;;5324869;28;20412;-74
2022/07/23 14:12:32;;;;;;;2.05;0.65;;;;;;;;;;5325294;28;20073;-74
2022/07/23 14:15:05;;;;;;;2.63;0.50;;;;;;;;;;5324889;28;20015;-73
2022/07/23 14:17:37;;;;;;;2.13;0.70;;;;;;;;;;5325380;28;20016;-74
2022/07/23 14:20:09;;;;;;;1.88;0.50;;;;;;;;;;5324958;28;20029;-72
2022/07/23 14:22:40;;;;;;;1.55;0.50;;;;;;;;;;5324212;28;20454;-74
2022/07/23 14:25:11;;;;;;;2.08;0.40;;;;;;;;;;5325193;28;20039;-74
2022/07/23 14:27:44;;;;;;;1.58;0.50;;;;;;;;;;5324955;28;20032;-74
2022/07/23 14:30:15;;;;;;;3.05;0.50;;;;;;;;;;5324299;28;20015;-74
2022/07/23 14:32:47;;;;;;;1.00;0.40;;;;;;;;;;5324947;28;20359;-74
2022/07/23 14:35:19;;;;;;;3.47;0.50;;;;;;;;;;5324392;28;20289;-72
2022/07/23 14:37:50;;;;;;;2.00;0.52;;;;;;;;;;5324618;28;20091;-70
2022/07/23 14:40:21;;;;;;;4.57;0.50;;;;;;;;;;5324623;28;20103;-71
2022/07/23 14:42:53;;;;;;;3.15;0.60;;;;;;;;;;5323708;28;20031;-71
2022/07/23 14:45:24;;;;;;;1.90;0.60;;;;;;;;;;5324452;28;20065;-71
2022/07/23 14:47:55;;;;;;;2.20;0.47;;;;;;;;;;5324737;28;20054;-71
2022/07/23 14:50:26;;;;;;;3.15;0.52;;;;;;;;;;5324057;28;20470;-71
2022/07/23 14:52:58;;;;;;;2.57;0.50;;;;;;;;;;5324853;28;20023;-71
2022/07/23 14:55:32;;;;;;;1.90;0.50;;;;;;;;;;5324359;28;20269;-71
2022/07/23 14:58:03;;;;;;;2.80;0.57;;;;;;;;;;5323797;28;20285;-71
2022/07/23 15:00:34;;;;;;;1.93;0.50;;;;;;;;;;5324103;28;20394;-71
2022/07/23 15:03:05;;;;;;;2.33;0.43;;;;;;;;;;5324293;28;20365;-71
2022/07/23 15:05:37;;;;;;;1.50;0.60;;;;;;;;;;5323965;28;20050;-72
2022/07/23 15:08:08;;;;;;;2.70;0.55;;;;;;;;;;5324493;28;20038;-72
2022/07/23 15:10:40;;;;;;;3.30;0.50;;;;;;;;;;5324448;28;20015;-71
2022/07/23 15:13:12;;;;;;;2.22;0.40;;;;;;;;;;5323520;28;20038;-71
2022/07/23 15:15:43;;;;;;;2.72;0.50;;;;;;;;;;5324321;28;20011;-71